TimePDT,TemperatureF,Dew PointF,Humidity,Sea Level PressureIn,VisibilityMPH,Wind Direction,Wind SpeedMPH,Gust SpeedMPH,PrecipitationIn,Events,Conditions,WindDirDegrees,DateUTC
12:56 AM,44.1,41.0,89,30.08,10.0,Calm,Calm,-,N/A,,Clear,0,2013-09-09 07:56:00
1:56 AM,43.0,39.9,89,30.08,10.0,Calm,Calm,-,N/A,,Clear,0,2013-09-09 08:56:00
2:56 AM,42.1,39.0,89,30.07,10.0,Calm,Calm,-,N/A,,Clear,0,2013-09-09 09:56:00
3:56 AM,41.0,37.9,89,30.06,10.0,Calm,Calm,-,N/A,,Clear,0,2013-09-09 10:56:00
4:56 AM,39.9,37.0,89,30.07,10.0,Calm,Calm,-,N/A,,Clear,0,2013-09-09 11:56:00
5:56 AM,39.9,37.0,89,30.07,10.0,Calm,Calm,-,N/A,,Clear,0,2013-09-09 12:56:00
6:56 AM,39.9,37.0,89,30.09,10.0,Calm,Calm,-,N/A,,Clear,0,2013-09-09 13:56:00
7:56 AM,46.0,42.1,86,30.09,10.0,Calm,Calm,-,N/A,,Clear,0,2013-09-09 14:56:00
8:56 AM,59.0,48.0,67,30.08,10.0,Calm,Calm,-,N/A,,Clear,0,2013-09-09 15:56:00
9:56 AM,69.1,50.0,51,30.06,10.0,Calm,Calm,-,N/A,,Clear,0,2013-09-09 16:56:00
10:56 AM,72.0,50.0,46,30.06,10.0,Calm,Calm,-,N/A,,Clear,0,2013-09-09 17:56:00
11:56 AM,73.0,48.9,42,30.05,10.0,Variable,4.6,-,N/A,,Clear,0,2013-09-09 18:56:00
12:56 PM,73.9,46.0,37,30.04,10.0,Calm,Calm,-,N/A,,Clear,0,2013-09-09 19:56:00
1:56 PM,75.9,46.9,36,30.03,10.0,Variable,6.9,-,N/A,,Clear,0,2013-09-09 20:56:00
2:56 PM,77.0,44.1,31,30.02,10.0,Calm,Calm,-,N/A,,Clear,0,2013-09-09 21:56:00
3:56 PM,77.0,42.1,29,30.01,10.0,North,3.5,-,N/A,,Clear,360,2013-09-09 22:56:00
4:56 PM,77.0,42.1,29,30.00,10.0,Calm,Calm,-,N/A,,Clear,0,2013-09-09 23:56:00
5:56 PM,73.9,43.0,33,30.01,10.0,Calm,Calm,-,N/A,,Clear,0,2013-09-10 00:56:00
6:56 PM,69.1,43.0,39,30.02,10.0,Calm,Calm,-,N/A,,Clear,0,2013-09-10 01:56:00
7:56 PM,61.0,45.0,56,30.03,10.0,Calm,Calm,-,N/A,,Clear,0,2013-09-10 02:56:00
8:56 PM,55.9,46.0,69,30.02,10.0,Calm,Calm,-,N/A,,Clear,0,2013-09-10 03:56:00
9:56 PM,53.1,45.0,74,30.01,10.0,Calm,Calm,-,N/A,,Clear,0,2013-09-10 04:56:00
10:56 PM,50.0,45.0,83,30.01,10.0,Calm,Calm,-,N/A,,Clear,0,2013-09-10 05:56:00
11:56 PM,48.0,44.1,86,30.00,10.0,Calm,Calm,-,N/A,,Clear,0,2013-09-10 06:56:00